DAL962 KATL-KTPA
Flight info
| Callsign | DAL962 |
|---|---|
| Flight time | 0h 59m |
| Altitude | 31000 |
| Route | BANNG3 LUCKK HONID MAATY5 |
| Aircraft | B738/M-SDE2E3FGHIRWXY/LB1 |
Departure
| Time | 2026-05-07 02:26 |
|---|---|
| Airport | Hartsfield Jackson Atlanta International Airport (KATL) |
Arrival
| Time | 2026-05-07 03:26 |
|---|---|
| Airport | Tampa International Airport (KTPA) |
| Time | Latitude | Longitude | Altitude | Speed | Heading |
|---|---|---|---|---|---|
| 2026-05-07 02:11 | 33.63855 | -84.42875 | 1004 ft | 0 kts | 281° |
| 2026-05-07 02:18 | 33.63854 | -84.42873 | 1004 ft | 1 kts | 281° |
| 2026-05-07 02:19 | 33.63851 | -84.42855 | 1003 ft | 2 kts | 281° |
| 2026-05-07 02:19 | 33.63848 | -84.42836 | 1003 ft | 2 kts | 281° |
| 2026-05-07 02:19 | 33.63847 | -84.42825 | 1003 ft | 1 kts | 282° |
| 2026-05-07 02:19 | 33.63849 | -84.42810 | 1003 ft | 2 kts | 226° |
| 2026-05-07 02:20 | 33.63859 | -84.42803 | 1003 ft | 0 kts | 185° |
| 2026-05-07 02:20 | 33.63865 | -84.42803 | 1003 ft | 1 kts | 179° |
| 2026-05-07 02:20 | 33.63867 | -84.42803 | 1003 ft | 0 kts | 180° |
| 2026-05-07 02:21 | 33.63862 | -84.42804 | 1003 ft | 4 kts | 183° |
| 2026-05-07 02:21 | 33.63806 | -84.42806 | 1003 ft | 6 kts | 179° |
| 2026-05-07 02:22 | 33.63784 | -84.42806 | 1002 ft | 2 kts | 179° |
| 2026-05-07 02:22 | 33.63744 | -84.42806 | 1002 ft | 8 kts | 181° |
| 2026-05-07 02:22 | 33.63678 | -84.42786 | 1002 ft | 15 kts | 135° |
| 2026-05-07 02:22 | 33.63654 | -84.42640 | 999 ft | 19 kts | 90° |
| 2026-05-07 02:23 | 33.63654 | -84.42477 | 996 ft | 20 kts | 91° |
| 2026-05-07 02:23 | 33.63654 | -84.42294 | 989 ft | 23 kts | 90° |
| 2026-05-07 02:23 | 33.63655 | -84.42089 | 981 ft | 26 kts | 90° |
| 2026-05-07 02:23 | 33.63655 | -84.41857 | 970 ft | 30 kts | 91° |
| 2026-05-07 02:24 | 33.63655 | -84.41604 | 964 ft | 23 kts | 90° |
| 2026-05-07 02:24 | 33.63655 | -84.41416 | 962 ft | 22 kts | 90° |
| 2026-05-07 02:24 | 33.63655 | -84.41230 | 962 ft | 21 kts | 90° |
| 2026-05-07 02:24 | 33.63655 | -84.41054 | 960 ft | 16 kts | 90° |
| 2026-05-07 02:25 | 33.63655 | -84.40916 | 955 ft | 16 kts | 90° |
| 2026-05-07 02:25 | 33.63598 | -84.40831 | 952 ft | 15 kts | 175° |
| 2026-05-07 02:25 | 33.63496 | -84.40839 | 952 ft | 13 kts | 210° |
| 2026-05-07 02:25 | 33.63472 | -84.40935 | 956 ft | 12 kts | 270° |
| 2026-05-07 02:26 | 33.63471 | -84.41318 | 962 ft | 85 kts | 270° |
| 2026-05-07 02:26 | 33.63471 | -84.42332 | 991 ft | 154 kts | 270° |
| 2026-05-07 02:26 | 33.63485 | -84.43762 | 1400 ft | 178 kts | 268° |
| 2026-05-07 02:26 | 33.63488 | -84.45140 | 2449 ft | 168 kts | 267° |
| 2026-05-07 02:27 | 33.63523 | -84.46491 | 3283 ft | 162 kts | 266° |
| 2026-05-07 02:27 | 33.63536 | -84.47846 | 3874 ft | 169 kts | 266° |
| 2026-05-07 02:27 | 33.63531 | -84.49260 | 4451 ft | 176 kts | 265° |
| 2026-05-07 02:27 | 33.63524 | -84.50786 | 4898 ft | 194 kts | 266° |
| 2026-05-07 02:28 | 33.63521 | -84.52462 | 5429 ft | 208 kts | 266° |
| 2026-05-07 02:28 | 33.63269 | -84.54188 | 5977 ft | 220 kts | 243° |
| 2026-05-07 02:28 | 33.62152 | -84.55496 | 6543 ft | 240 kts | 209° |
| 2026-05-07 02:28 | 33.60445 | -84.55785 | 7130 ft | 267 kts | 178° |
| 2026-05-07 02:29 | 33.58620 | -84.55194 | 7866 ft | 279 kts | 169° |
| 2026-05-07 02:29 | 33.56748 | -84.54511 | 8601 ft | 283 kts | 172° |
| 2026-05-07 02:29 | 33.54839 | -84.53978 | 9440 ft | 283 kts | 176° |
| 2026-05-07 02:29 | 33.52920 | -84.53565 | 10242 ft | 284 kts | 179° |
| 2026-05-07 02:30 | 33.50940 | -84.53188 | 10809 ft | 295 kts | 179° |
| 2026-05-07 02:30 | 33.48864 | -84.52795 | 11419 ft | 304 kts | 179° |
| 2026-05-07 02:30 | 33.46752 | -84.52381 | 12016 ft | 313 kts | 179° |
| 2026-05-07 02:30 | 33.44587 | -84.51948 | 12586 ft | 322 kts | 179° |
| 2026-05-07 02:31 | 33.42310 | -84.51495 | 12876 ft | 341 kts | 178° |
| 2026-05-07 02:31 | 33.39926 | -84.51015 | 13290 ft | 353 kts | 179° |
| 2026-05-07 02:31 | 33.37480 | -84.50521 | 13825 ft | 362 kts | 178° |
| 2026-05-07 02:31 | 33.34982 | -84.50009 | 14511 ft | 365 kts | 178° |
| 2026-05-07 02:32 | 33.32499 | -84.49498 | 15104 ft | 370 kts | 178° |
| 2026-05-07 02:32 | 33.29945 | -84.48975 | 15715 ft | 375 kts | 178° |
| 2026-05-07 02:32 | 33.27328 | -84.48444 | 16260 ft | 381 kts | 178° |
| 2026-05-07 02:32 | 33.24712 | -84.47913 | 16838 ft | 385 kts | 178° |
| 2026-05-07 02:33 | 33.22086 | -84.47379 | 17550 ft | 385 kts | 178° |
| 2026-05-07 02:33 | 33.19403 | -84.46838 | 17966 ft | 393 kts | 179° |
| 2026-05-07 02:33 | 33.16683 | -84.46292 | 18507 ft | 398 kts | 179° |
| 2026-05-07 02:33 | 33.13979 | -84.45749 | 19026 ft | 402 kts | 179° |
| 2026-05-07 02:34 | 33.11219 | -84.45194 | 19671 ft | 402 kts | 179° |
| 2026-05-07 02:34 | 33.08414 | -84.44634 | 19991 ft | 412 kts | 179° |
| 2026-05-07 02:34 | 33.05584 | -84.44070 | 20510 ft | 416 kts | 180° |
| 2026-05-07 02:34 | 33.02728 | -84.43497 | 21105 ft | 416 kts | 180° |
| 2026-05-07 02:35 | 32.99878 | -84.42922 | 21647 ft | 419 kts | 180° |
| 2026-05-07 02:35 | 32.96970 | -84.42373 | 22009 ft | 424 kts | 182° |
| 2026-05-07 02:35 | 32.94054 | -84.42020 | 22482 ft | 422 kts | 186° |
| 2026-05-07 02:35 | 32.91096 | -84.41859 | 22938 ft | 423 kts | 188° |
| 2026-05-07 02:36 | 32.88150 | -84.41800 | 23265 ft | 429 kts | 189° |
| 2026-05-07 02:36 | 32.85163 | -84.41776 | 23793 ft | 430 kts | 189° |
| 2026-05-07 02:36 | 32.82165 | -84.41759 | 24236 ft | 433 kts | 189° |
| 2026-05-07 02:36 | 32.79133 | -84.41734 | 24672 ft | 436 kts | 188° |
| 2026-05-07 02:37 | 32.76082 | -84.41704 | 24944 ft | 444 kts | 188° |
| 2026-05-07 02:37 | 32.73010 | -84.41664 | 25522 ft | 443 kts | 188° |
| 2026-05-07 02:37 | 32.69873 | -84.41618 | 25729 ft | 452 kts | 188° |
| 2026-05-07 02:37 | 32.66755 | -84.41564 | 26304 ft | 450 kts | 187° |
| 2026-05-07 02:38 | 32.63626 | -84.41503 | 26747 ft | 452 kts | 187° |
| 2026-05-07 02:38 | 32.60466 | -84.41441 | 27151 ft | 455 kts | 187° |
| 2026-05-07 02:38 | 32.57281 | -84.41376 | 27572 ft | 457 kts | 187° |
| 2026-05-07 02:38 | 32.54135 | -84.41310 | 28060 ft | 456 kts | 187° |
| 2026-05-07 02:39 | 32.50930 | -84.41242 | 28612 ft | 455 kts | 187° |
| 2026-05-07 02:39 | 32.47816 | -84.41174 | 29167 ft | 452 kts | 187° |
| 2026-05-07 02:39 | 32.44656 | -84.41106 | 29697 ft | 451 kts | 187° |
| 2026-05-07 02:39 | 32.41528 | -84.41042 | 30181 ft | 450 kts | 187° |
| 2026-05-07 02:40 | 32.38417 | -84.40978 | 30623 ft | 449 kts | 187° |
| 2026-05-07 02:40 | 32.35288 | -84.40916 | 30958 ft | 450 kts | 187° |
| 2026-05-07 02:40 | 32.28911 | -84.40804 | 30970 ft | 466 kts | 187° |
| 2026-05-07 02:41 | 32.22302 | -84.40690 | 30970 ft | 481 kts | 186° |
| 2026-05-07 02:41 | 32.15531 | -84.40560 | 30969 ft | 490 kts | 186° |
| 2026-05-07 02:42 | 32.08723 | -84.40415 | 30966 ft | 489 kts | 186° |
| 2026-05-07 02:42 | 32.01885 | -84.40268 | 30973 ft | 493 kts | 187° |
| 2026-05-07 02:43 | 31.95052 | -84.40125 | 30971 ft | 491 kts | 186° |
| 2026-05-07 02:43 | 31.88191 | -84.39980 | 30975 ft | 490 kts | 187° |
| 2026-05-07 02:44 | 31.81372 | -84.39844 | 30974 ft | 491 kts | 187° |
| 2026-05-07 02:44 | 31.74552 | -84.39712 | 30970 ft | 490 kts | 187° |
| 2026-05-07 02:45 | 31.67687 | -84.39580 | 30972 ft | 492 kts | 187° |
| 2026-05-07 02:45 | 31.60884 | -84.39471 | 30972 ft | 491 kts | 188° |
| 2026-05-07 02:46 | 31.54085 | -84.39469 | 30973 ft | 489 kts | 188° |
| 2026-05-07 02:46 | 31.47281 | -84.39505 | 30973 ft | 489 kts | 188° |
| 2026-05-07 02:47 | 31.40486 | -84.39535 | 30970 ft | 487 kts | 188° |
| 2026-05-07 02:47 | 31.33655 | -84.39555 | 30974 ft | 489 kts | 188° |
| 2026-05-07 02:48 | 31.26857 | -84.39572 | 30980 ft | 490 kts | 188° |
| 2026-05-07 02:48 | 31.20026 | -84.39579 | 30991 ft | 490 kts | 188° |
| 2026-05-07 02:49 | 31.13212 | -84.39588 | 30993 ft | 486 kts | 189° |
| 2026-05-07 02:49 | 31.06480 | -84.39595 | 30999 ft | 488 kts | 189° |
| 2026-05-07 02:50 | 30.99674 | -84.39605 | 31006 ft | 488 kts | 189° |
| 2026-05-07 02:50 | 30.92901 | -84.39616 | 31007 ft | 487 kts | 189° |
| 2026-05-07 02:51 | 30.86108 | -84.39626 | 31006 ft | 489 kts | 189° |
| 2026-05-07 02:51 | 30.79302 | -84.39637 | 31011 ft | 487 kts | 189° |
| 2026-05-07 02:52 | 30.72522 | -84.39645 | 31010 ft | 488 kts | 189° |
| 2026-05-07 02:52 | 30.65762 | -84.39654 | 31012 ft | 486 kts | 189° |
| 2026-05-07 02:53 | 30.58992 | -84.39662 | 31015 ft | 486 kts | 188° |
| 2026-05-07 02:53 | 30.52242 | -84.39669 | 31021 ft | 486 kts | 188° |
| 2026-05-07 02:54 | 30.45456 | -84.39681 | 31021 ft | 486 kts | 188° |
| 2026-05-07 02:54 | 30.38668 | -84.39538 | 31023 ft | 492 kts | 183° |
| 2026-05-07 02:55 | 30.31966 | -84.37502 | 31027 ft | 516 kts | 161° |
| 2026-05-07 02:55 | 30.28837 | -84.35369 | 31026 ft | 524 kts | 150° |
| 2026-05-07 02:55 | 30.25942 | -84.32851 | 31027 ft | 527 kts | 147° |
| 2026-05-07 02:56 | 30.20267 | -84.27382 | 31015 ft | 529 kts | 144° |
| 2026-05-07 02:56 | 30.14759 | -84.21814 | 31013 ft | 529 kts | 143° |
| 2026-05-07 02:57 | 30.09229 | -84.16225 | 31011 ft | 529 kts | 144° |
| 2026-05-07 02:57 | 30.03647 | -84.10656 | 31008 ft | 528 kts | 144° |
| 2026-05-07 02:58 | 29.98068 | -84.05144 | 31010 ft | 529 kts | 144° |
| 2026-05-07 02:58 | 29.92493 | -83.99664 | 31009 ft | 529 kts | 144° |
| 2026-05-07 02:59 | 29.86880 | -83.94164 | 31007 ft | 529 kts | 144° |
| 2026-05-07 02:59 | 29.81154 | -83.88969 | 31013 ft | 525 kts | 150° |
| 2026-05-07 03:00 | 29.74994 | -83.84551 | 31011 ft | 519 kts | 156° |
| 2026-05-07 03:00 | 29.68666 | -83.80530 | 31011 ft | 518 kts | 157° |
| 2026-05-07 03:01 | 29.62311 | -83.76580 | 31013 ft | 520 kts | 157° |
| 2026-05-07 03:01 | 29.56003 | -83.72626 | 31019 ft | 518 kts | 156° |
| 2026-05-07 03:02 | 29.49686 | -83.68619 | 31018 ft | 518 kts | 156° |
| 2026-05-07 03:02 | 29.46569 | -83.66625 | 31016 ft | 504 kts | 156° |
| 2026-05-07 03:02 | 29.43578 | -83.64698 | 31024 ft | 487 kts | 156° |
| 2026-05-07 03:03 | 29.40672 | -83.62822 | 30959 ft | 473 kts | 156° |
| 2026-05-07 03:03 | 29.37840 | -83.60998 | 30685 ft | 464 kts | 157° |
| 2026-05-07 03:03 | 29.35052 | -83.59211 | 30280 ft | 459 kts | 157° |
| 2026-05-07 03:03 | 29.32273 | -83.57436 | 29777 ft | 456 kts | 157° |
| 2026-05-07 03:04 | 29.29504 | -83.55673 | 29250 ft | 454 kts | 158° |
| 2026-05-07 03:04 | 29.26762 | -83.53929 | 28726 ft | 452 kts | 158° |
| 2026-05-07 03:04 | 29.24024 | -83.52187 | 28201 ft | 450 kts | 158° |
| 2026-05-07 03:04 | 29.21268 | -83.50436 | 27661 ft | 448 kts | 157° |
| 2026-05-07 03:05 | 29.18571 | -83.48723 | 27133 ft | 446 kts | 157° |
| 2026-05-07 03:05 | 29.15853 | -83.46995 | 26591 ft | 444 kts | 157° |
| 2026-05-07 03:05 | 29.13189 | -83.45304 | 26059 ft | 442 kts | 157° |
| 2026-05-07 03:05 | 29.10495 | -83.43594 | 25520 ft | 440 kts | 157° |
| 2026-05-07 03:06 | 29.07823 | -83.41900 | 24982 ft | 437 kts | 157° |
| 2026-05-07 03:06 | 29.05171 | -83.40220 | 24444 ft | 435 kts | 157° |
| 2026-05-07 03:06 | 29.02549 | -83.38557 | 23916 ft | 433 kts | 156° |
| 2026-05-07 03:06 | 28.99932 | -83.36897 | 23386 ft | 430 kts | 156° |
| 2026-05-07 03:07 | 28.97319 | -83.35238 | 22843 ft | 428 kts | 156° |
| 2026-05-07 03:07 | 28.94741 | -83.33602 | 22315 ft | 426 kts | 156° |
| 2026-05-07 03:07 | 28.92163 | -83.31968 | 21781 ft | 423 kts | 156° |
| 2026-05-07 03:07 | 28.89607 | -83.30348 | 21251 ft | 421 kts | 156° |
| 2026-05-07 03:08 | 28.87055 | -83.28732 | 20718 ft | 418 kts | 155° |
| 2026-05-07 03:08 | 28.84506 | -83.27119 | 20183 ft | 415 kts | 155° |
| 2026-05-07 03:08 | 28.81993 | -83.25530 | 19651 ft | 412 kts | 155° |
| 2026-05-07 03:08 | 28.79507 | -83.23959 | 19126 ft | 409 kts | 155° |
| 2026-05-07 03:09 | 28.77014 | -83.22385 | 18595 ft | 406 kts | 154° |
| 2026-05-07 03:09 | 28.74547 | -83.20825 | 18068 ft | 403 kts | 154° |
| 2026-05-07 03:09 | 28.72119 | -83.19292 | 17503 ft | 402 kts | 154° |
| 2026-05-07 03:09 | 28.69666 | -83.17744 | 16945 ft | 399 kts | 154° |
| 2026-05-07 03:10 | 28.67273 | -83.16235 | 16425 ft | 395 kts | 153° |
| 2026-05-07 03:10 | 28.64887 | -83.14732 | 15912 ft | 392 kts | 153° |
| 2026-05-07 03:10 | 28.62493 | -83.13224 | 15394 ft | 388 kts | 153° |
| 2026-05-07 03:10 | 28.60162 | -83.11757 | 14893 ft | 385 kts | 153° |
| 2026-05-07 03:11 | 28.57835 | -83.10294 | 14390 ft | 381 kts | 153° |
| 2026-05-07 03:11 | 28.55529 | -83.08843 | 13889 ft | 378 kts | 153° |
| 2026-05-07 03:11 | 28.53231 | -83.07400 | 13396 ft | 374 kts | 153° |
| 2026-05-07 03:11 | 28.50977 | -83.05983 | 12909 ft | 370 kts | 153° |
| 2026-05-07 03:12 | 28.48710 | -83.04560 | 12417 ft | 367 kts | 153° |
| 2026-05-07 03:12 | 28.46491 | -83.03168 | 11938 ft | 364 kts | 153° |
| 2026-05-07 03:12 | 28.44299 | -83.01793 | 11460 ft | 360 kts | 153° |
| 2026-05-07 03:12 | 28.42102 | -83.00417 | 11030 ft | 355 kts | 153° |
| 2026-05-07 03:13 | 28.39998 | -82.99097 | 10956 ft | 342 kts | 153° |
| 2026-05-07 03:13 | 28.37924 | -82.97798 | 10959 ft | 341 kts | 153° |
| 2026-05-07 03:13 | 28.35835 | -82.96492 | 10959 ft | 341 kts | 153° |
| 2026-05-07 03:13 | 28.33747 | -82.95187 | 10963 ft | 341 kts | 153° |
| 2026-05-07 03:14 | 28.31683 | -82.93898 | 10958 ft | 341 kts | 152° |
| 2026-05-07 03:14 | 28.29600 | -82.92597 | 10964 ft | 341 kts | 152° |
| 2026-05-07 03:14 | 28.25665 | -82.89568 | 10973 ft | 343 kts | 139° |
| 2026-05-07 03:15 | 28.23938 | -82.87718 | 10959 ft | 343 kts | 136° |
| 2026-05-07 03:15 | 28.22245 | -82.85771 | 10964 ft | 344 kts | 135° |
| 2026-05-07 03:15 | 28.20605 | -82.83868 | 10842 ft | 337 kts | 135° |
| 2026-05-07 03:15 | 28.18961 | -82.81985 | 10461 ft | 333 kts | 136° |
| 2026-05-07 03:16 | 28.17339 | -82.80160 | 10136 ft | 326 kts | 136° |
| 2026-05-07 03:16 | 28.15750 | -82.78394 | 9970 ft | 315 kts | 136° |
| 2026-05-07 03:16 | 28.14187 | -82.76667 | 9593 ft | 312 kts | 136° |
| 2026-05-07 03:16 | 28.12635 | -82.74958 | 9185 ft | 311 kts | 136° |
| 2026-05-07 03:17 | 28.11097 | -82.73267 | 8794 ft | 309 kts | 136° |
| 2026-05-07 03:17 | 28.09566 | -82.71581 | 8404 ft | 306 kts | 136° |
| 2026-05-07 03:17 | 28.08048 | -82.69910 | 8017 ft | 303 kts | 136° |
| 2026-05-07 03:17 | 28.06544 | -82.68224 | 7629 ft | 301 kts | 135° |
| 2026-05-07 03:18 | 28.05086 | -82.66549 | 7253 ft | 297 kts | 135° |
| 2026-05-07 03:18 | 28.03667 | -82.64906 | 6884 ft | 294 kts | 135° |
| 2026-05-07 03:18 | 28.02228 | -82.63264 | 6496 ft | 287 kts | 137° |
| 2026-05-07 03:18 | 28.00701 | -82.61926 | 6172 ft | 273 kts | 152° |
| 2026-05-07 03:19 | 27.98923 | -82.61370 | 5837 ft | 262 kts | 177° |
| 2026-05-07 03:19 | 27.97124 | -82.61449 | 5518 ft | 252 kts | 183° |
| 2026-05-07 03:19 | 27.95422 | -82.61617 | 5257 ft | 240 kts | 182° |
| 2026-05-07 03:19 | 27.93817 | -82.61742 | 5164 ft | 224 kts | 181° |
| 2026-05-07 03:20 | 27.92270 | -82.61822 | 5108 ft | 222 kts | 180° |
| 2026-05-07 03:20 | 27.90699 | -82.61886 | 5038 ft | 223 kts | 180° |
| 2026-05-07 03:20 | 27.89151 | -82.61945 | 4971 ft | 222 kts | 180° |
| 2026-05-07 03:20 | 27.87621 | -82.62004 | 4972 ft | 222 kts | 180° |
| 2026-05-07 03:21 | 27.86048 | -82.62065 | 4606 ft | 228 kts | 180° |
| 2026-05-07 03:21 | 27.84465 | -82.62127 | 4172 ft | 228 kts | 180° |
| 2026-05-07 03:21 | 27.82876 | -82.62190 | 3737 ft | 227 kts | 180° |
| 2026-05-07 03:21 | 27.81327 | -82.61975 | 3290 ft | 226 kts | 153° |
| 2026-05-07 03:22 | 27.80183 | -82.60809 | 2866 ft | 224 kts | 116° |
| 2026-05-07 03:22 | 27.79812 | -82.59187 | 2967 ft | 213 kts | 93° |
| 2026-05-07 03:22 | 27.79945 | -82.57465 | 2961 ft | 222 kts | 76° |
| 2026-05-07 03:22 | 27.80638 | -82.55943 | 2962 ft | 225 kts | 46° |
| 2026-05-07 03:23 | 27.81982 | -82.54987 | 2833 ft | 232 kts | 22° |
| 2026-05-07 03:23 | 27.83527 | -82.54606 | 2477 ft | 226 kts | 5° |
| 2026-05-07 03:23 | 27.85068 | -82.54592 | 2188 ft | 210 kts | 359° |
| 2026-05-07 03:23 | 27.86469 | -82.54596 | 1890 ft | 197 kts | 1° |
| 2026-05-07 03:24 | 27.87804 | -82.54528 | 1646 ft | 184 kts | 1° |
| 2026-05-07 03:24 | 27.89054 | -82.54479 | 1419 ft | 177 kts | 0° |
| 2026-05-07 03:24 | 27.90267 | -82.54446 | 1208 ft | 169 kts | 0° |
| 2026-05-07 03:24 | 27.91427 | -82.54404 | 972 ft | 168 kts | 0° |
| 2026-05-07 03:25 | 27.92585 | -82.54362 | 748 ft | 162 kts | 0° |
| 2026-05-07 03:25 | 27.93687 | -82.54330 | 532 ft | 155 kts | 0° |
| 2026-05-07 03:25 | 27.94778 | -82.54292 | 362 ft | 154 kts | 1° |
| 2026-05-07 03:25 | 27.95857 | -82.54253 | 146 ft | 156 kts | 1° |
| 2026-05-07 03:26 | 27.96930 | -82.54217 | 17 ft | 147 kts | 1° |
| 2026-05-07 03:26 | 27.97742 | -82.54188 | 16 ft | 69 kts | 2° |
| 2026-05-07 03:26 | 27.98070 | -82.54176 | 18 ft | 34 kts | 5° |
| 2026-05-07 03:26 | 27.98242 | -82.54134 | 19 ft | 13 kts | 33° |
| 2026-05-07 03:27 | 27.98235 | -82.54057 | 21 ft | 11 kts | 151° |
| 2026-05-07 03:27 | 27.98144 | -82.54050 | 20 ft | 18 kts | 181° |
| 2026-05-07 03:27 | 27.98044 | -82.54036 | 18 ft | 13 kts | 134° |
| 2026-05-07 03:27 | 27.98002 | -82.53952 | 19 ft | 9 kts | 114° |
| 2026-05-07 03:28 | 27.97993 | -82.53896 | 20 ft | 3 kts | 92° |
| 2026-05-07 03:28 | 27.97993 | -82.53893 | 20 ft | 1 kts | 92° |
| 2026-05-07 03:28 | 27.97993 | -82.53892 | 20 ft | 0 kts | 92° |